Time;durP1;ratioP1;P1;durP2;ratioP2;P2;SDS_P1;SDS_P2;PMS_P1;PMS_P2;Temp;Humidity;BMP_temperature;BMP_pressure;BME280_temperature;BME280_humidity;BME280_pressure;Samples;Min_cycle;Max_cycle;Signal;HPM_P1;HPM_P2
2023/03/28 00:00:43;;;;;;;14.43;2.67;;;;;;;3.58;89.63;101632.06;8295475;28;20042;-59
2023/03/28 00:04:43;;;;;;;6.80;2.13;;;;;;;3.60;89.51;101631.03;8294719;28;20037;-59
2023/03/28 00:08:46;;;;;;;16.98;2.50;;;;;;;3.55;89.24;101626.84;8294422;28;20512;-54
2023/03/28 00:12:47;;;;;;;8.05;2.22;;;;;;;3.50;88.94;101639.53;8294542;28;20034;-59
2023/03/28 00:16:47;;;;;;;11.60;2.88;;;;;;;3.38;90.41;101645.44;8294575;28;20072;-59
2023/03/28 00:20:48;;;;;;;12.80;3.22;;;;;;;3.06;90.82;101643.31;8297302;28;20549;-58
2023/03/28 00:24:50;;;;;;;16.80;2.50;;;;;;;3.09;90.99;101653.88;8326460;28;20048;-59
2023/03/28 00:28:51;;;;;;;11.75;2.60;;;;;;;3.19;90.85;101650.72;8305019;28;20470;-60
2023/03/28 00:32:52;;;;;;;9.38;2.47;;;;;;;3.22;90.74;101650.59;8291884;28;20392;-59
2023/03/28 00:36:53;;;;;;;10.35;2.78;;;;;;;3.24;90.83;101645.19;8290560;28;20103;-53
2023/03/28 00:40:56;;;;;;;18.48;2.95;;;;;;;3.28;90.62;101644.13;8291894;28;20415;-54
2023/03/28 00:44:57;;;;;;;10.02;2.80;;;;;;;3.32;90.74;101641.25;8293300;28;20065;-52
2023/03/28 00:49:04;;;;;;;16.23;3.33;;;;;;;3.24;90.52;101632.72;8293897;28;20029;-53
2023/03/28 00:53:09;;;;;;;14.20;2.88;;;;;;;3.18;90.97;101638.31;8315337;28;20045;-53
2023/03/28 00:57:11;;;;;;;8.02;2.65;;;;;;;3.25;91.32;101629.09;8317855;28;20125;-54
2023/03/28 01:01:14;;;;;;;25.17;3.40;;;;;;;3.14;91.76;101647.38;8292925;28;20046;-53
2023/03/28 01:05:18;;;;;;;10.40;3.05;;;;;;;3.03;92.15;101633.63;8291708;28;20049;-54
2023/03/28 01:09:20;;;;;;;15.27;2.88;;;;;;;3.10;92.42;101639.56;8307971;28;20496;-52
2023/03/28 01:13:28;;;;;;;7.82;2.53;;;;;;;3.06;91.62;101632.63;8292833;28;20041;-54
2023/03/28 01:17:29;;;;;;;8.93;2.78;;;;;;;3.00;91.63;101628.44;8292604;28;20585;-52
2023/03/28 01:22:05;;;;;;;17.77;4.28;;;;;;;2.95;91.68;101635.75;8301587;28;20450;-53
2023/03/28 01:26:32;;;;;;;12.18;2.95;;;;;;;2.86;91.83;101635.25;8323999;28;20040;-53
2023/03/28 01:31:04;;;;;;;7.47;2.95;;;;;;;2.82;93.48;101623.88;8254003;28;20550;-53
2023/03/28 01:40:21;;;;;;;15.45;2.85;;;;;;;2.57;93.98;101632.97;8349464;27;20490;-58
2023/03/28 01:49:13;;;;;;;12.18;4.13;;;;;;;2.43;94.77;101640.63;8406472;27;21447;-57
2023/03/28 01:53:54;;;;;;;12.45;3.70;;;;;;;2.49;95.44;101633.28;8401529;27;20036;-55
2023/03/28 01:58:22;;;;;;;12.82;4.35;;;;;;;2.55;95.86;101635.69;8400483;27;20036;-58
2023/03/28 02:02:49;;;;;;;20.23;6.97;;;;;;;2.39;94.73;101629.25;8401109;27;20040;-59
2023/03/28 02:07:02;;;;;;;20.45;5.13;;;;;;;2.37;95.17;101628.44;8401013;27;20033;-60
2023/03/28 02:11:09;;;;;;;12.45;3.42;;;;;;;2.37;94.77;101631.09;8401091;27;20037;-59
2023/03/28 02:15:23;;;;;;;11.80;3.90;;;;;;;2.29;95.08;101627.88;8395480;28;20123;-58
2023/03/28 02:19:51;;;;;;;12.27;4.38;;;;;;;2.33;94.88;101620.59;8401061;28;20283;-59
2023/03/28 02:24:11;;;;;;;10.57;3.38;;;;;;;2.36;94.89;101621.38;8400780;27;20407;-59
2023/03/28 02:28:30;;;;;;;10.85;4.32;;;;;;;2.39;94.51;101613.22;8399280;27;20032;-59
2023/03/28 02:32:51;;;;;;;16.20;4.25;;;;;;;2.48;94.08;101617.31;8400316;27;20048;-58
2023/03/28 02:37:06;;;;;;;9.68;3.30;;;;;;;2.46;94.13;101620.06;8400108;27;20568;-58
2023/03/28 02:41:13;;;;;;;;;;;;;;;2.41;93.67;101627.38;8401470;27;20110;-58
2023/03/28 02:45:42;;;;;;;12.25;3.60;;;;;;;2.38;94.07;101611.47;8395653;27;19916;-54
2023/03/28 02:50:13;;;;;;;12.25;3.60;;;;;;;2.40;93.84;101614.97;8400300;27;20518;-58
2023/03/28 02:54:36;;;;;;;14.32;3.65;;;;;;;2.41;94.07;101621.19;8395206;27;20070;-53
2023/03/28 02:59:03;;;;;;;12.65;4.40;;;;;;;2.36;93.58;101624.03;8387546;27;20036;-59
2023/03/28 03:03:07;;;;;;;17.48;3.92;;;;;;;2.35;95.01;101622.28;8378045;28;20037;-58
2023/03/28 03:07:08;;;;;;;7.97;3.45;;;;;;;2.27;94.82;101616.41;8377220;28;20043;-58
2023/03/28 03:11:09;;;;;;;12.88;4.05;;;;;;;2.36;94.36;101623.16;8377761;28;20064;-59
2023/03/28 03:15:10;;;;;;;22.58;5.78;;;;;;;2.45;93.63;101617.44;8377177;28;20044;-58
2023/03/28 03:19:25;;;;;;;10.98;4.03;;;;;;;2.44;92.92;101621.91;8393877;28;20040;-58
2023/03/28 03:23:25;;;;;;;15.70;4.28;;;;;;;2.40;92.92;101620.31;8393998;28;20045;-50
2023/03/28 03:27:30;;;;;;;7.82;3.30;;;;;;;2.39;93.37;101623.91;8392917;28;20125;-52
2023/03/28 03:31:31;;;;;;;17.73;4.10;;;;;;;2.28;93.67;101625.28;8393472;28;20127;-53
2023/03/28 03:35:52;;;;;;;12.20;3.55;;;;;;;2.25;93.77;101620.91;8376112;28;20040;-53
2023/03/28 03:39:53;;;;;;;9.50;3.80;;;;;;;2.20;93.81;101630.03;8376885;28;20040;-53
2023/03/28 03:44:01;;;;;;;12.48;3.90;;;;;;;2.13;94.06;101628.56;8376062;28;20046;-52
2023/03/28 03:48:03;;;;;;;10.80;3.50;;;;;;;2.12;94.42;101619.66;8375789;28;20093;-57
2023/03/28 03:52:04;;;;;;;6.60;3.72;;;;;;;2.05;94.12;101626.19;8374869;28;20059;-52
2023/03/28 03:56:05;;;;;;;11.45;4.03;;;;;;;1.90;95.09;101635.63;8375776;28;20056;-53
2023/03/28 04:00:24;;;;;;;10.30;3.95;;;;;;;1.86;95.36;101633.16;8359024;28;20048;-51
2023/03/28 04:04:26;;;;;;;16.27;4.50;;;;;;;1.97;95.18;101630.94;8358793;28;20116;-53
2023/03/28 04:08:37;;;;;;;18.60;4.63;;;;;;;1.96;95.16;101639.88;8358011;28;20448;-53
2023/03/28 04:12:39;;;;;;;11.18;3.90;;;;;;;1.79;95.88;101631.63;8349890;28;20059;-53
2023/03/28 04:16:40;;;;;;;18.45;4.05;;;;;;;1.63;96.66;101635.81;8352812;28;20071;-53
2023/03/28 04:20:42;;;;;;;12.93;4.70;;;;;;;1.59;97.21;101647.53;8350120;28;20055;-53
2023/03/28 04:24:43;;;;;;;19.48;5.82;;;;;;;1.71;97.61;101647.06;8352723;28;20032;-53
2023/03/28 04:28:52;;;;;;;11.82;4.22;;;;;;;1.50;98.18;101651.38;8360780;28;20047;-50
2023/03/28 04:32:53;;;;;;;6.70;3.60;;;;;;;1.44;97.53;101656.06;8374810;28;20040;-52
2023/03/28 04:37:00;;;;;;;16.08;4.50;;;;;;;1.37;98.23;101650.09;8360739;28;20056;-60
2023/03/28 04:41:04;;;;;;;10.93;5.07;;;;;;;1.38;98.04;101645.63;8343537;28;20037;-60
2023/03/28 04:45:25;;;;;;;25.27;8.63;;;;;;;1.47;97.35;101656.81;8384070;28;20047;-59
2023/03/28 04:49:27;;;;;;;19.92;7.38;;;;;;;1.52;97.25;101653.97;8388704;28;20066;-60
2023/03/28 04:53:28;;;;;;;22.92;5.53;;;;;;;1.43;97.05;101648.97;8365545;28;20047;-59
2023/03/28 04:57:48;;;;;;;11.98;4.60;;;;;;;1.52;96.94;101649.53;8371213;28;20033;-59
2023/03/28 05:01:52;;;;;;;19.92;4.30;;;;;;;1.44;97.28;101650.75;8367183;28;20491;-59
2023/03/28 05:06:05;;;;;;;19.45;4.50;;;;;;;1.42;99.00;101647.25;8364110;28;20482;-60
2023/03/28 05:10:06;;;;;;;11.10;4.40;;;;;;;1.13;98.02;101650.09;8370135;28;20411;-59
2023/03/28 05:14:11;;;;;;;10.35;4.57;;;;;;;1.08;99.17;101652.03;8378601;28;20064;-60
2023/03/28 05:18:19;;;;;;;12.23;4.95;;;;;;;1.19;99.66;101655.22;8355393;28;20069;-59
2023/03/28 05:22:19;;;;;;;15.98;4.95;;;;;;;1.10;98.64;101655.53;8354970;28;20056;-60
2023/03/28 05:26:21;;;;;;;20.25;5.35;;;;;;;1.20;99.57;101651.63;8350391;28;20059;-59
2023/03/28 05:30:22;;;;;;;15.23;5.03;;;;;;;1.18;99.96;101653.44;8359198;28;20072;-59
2023/03/28 05:34:28;;;;;;;;;;;;;;;1.22;100.00;101657.78;8364297;28;20145;-60
2023/03/28 05:38:30;;;;;;;13.70;5.22;;;;;;;1.47;100.00;101667.47;8378489;28;19923;-53
2023/03/28 05:42:37;;;;;;;15.93;5.88;;;;;;;1.29;99.58;101672.59;8375905;28;20036;-52
2023/03/28 05:46:44;;;;;;;18.20;5.80;;;;;;;1.46;98.89;101678.19;8410357;28;20039;-51
2023/03/28 05:50:47;;;;;;;23.10;7.55;;;;;;;1.57;98.59;101679.56;8345669;28;20040;-52
2023/03/28 05:54:49;;;;;;;25.95;9.98;;;;;;;1.73;98.37;101679.84;8409680;28;20538;-52
2023/03/28 05:58:51;;;;;;;23.60;9.05;;;;;;;1.95;97.40;101676.31;8380945;28;20143;-53
2023/03/28 06:02:53;;;;;;;16.10;5.65;;;;;;;2.06;97.03;101675.91;8384799;28;20133;-53
2023/03/28 06:07:05;;;;;;;18.13;6.60;;;;;;;2.47;94.74;101680.50;8420171;28;20044;-53
2023/03/28 06:11:06;;;;;;;17.60;7.30;;;;;;;2.66;93.51;101688.63;8420990;28;20061;-53
2023/03/28 06:15:27;;;;;;;13.13;4.47;;;;;;;2.80;92.88;101700.47;8422168;28;20067;-53
2023/03/28 06:19:29;;;;;;;16.13;5.00;;;;;;;3.12;91.04;101686.69;8422357;28;20032;-51
2023/03/28 06:23:31;;;;;;;12.00;4.15;;;;;;;3.27;90.85;101686.00;8373062;28;20056;-53
2023/03/28 06:27:33;;;;;;;13.38;4.38;;;;;;;3.72;88.71;101689.31;8350069;28;20060;-54
2023/03/28 06:31:35;;;;;;;12.77;4.90;;;;;;;3.80;87.38;101692.53;8372491;28;20044;-53
2023/03/28 06:35:36;;;;;;;13.98;4.85;;;;;;;4.01;85.92;101694.22;8390610;28;20094;-60
2023/03/28 06:39:36;;;;;;;16.55;5.07;;;;;;;4.29;84.94;101691.13;8345299;28;20276;-60
2023/03/28 06:43:37;;;;;;;25.77;8.13;;;;;;;4.35;84.74;101687.28;8345592;28;20033;-60
2023/03/28 06:47:40;;;;;;;24.33;7.30;;;;;;;4.38;85.09;101700.50;8344354;28;20033;-60
2023/03/28 06:51:41;;;;;;;24.23;6.80;;;;;;;4.55;84.43;101697.91;8382642;28;20044;-60
2023/03/28 06:55:42;;;;;;;18.77;5.05;;;;;;;4.66;85.82;101700.97;8384885;28;20043;-51
2023/03/28 06:59:42;;;;;;;21.35;5.72;;;;;;;5.02;83.27;101704.47;8371568;28;20606;-52
2023/03/28 07:03:49;;;;;;;14.60;4.30;;;;;;;5.18;82.24;101694.72;8377079;28;20480;-53
2023/03/28 07:07:54;;;;;;;;;;;;;;;5.00;82.70;101695.66;8374676;28;20123;-53
2023/03/28 07:11:55;;;;;;;13.65;3.80;;;;;;;5.31;81.75;101701.22;8386049;28;19928;-53
2023/03/28 07:16:06;;;;;;;10.98;3.83;;;;;;;5.42;82.20;101698.84;8364829;28;20090;-52
2023/03/28 07:20:07;;;;;;;13.73;5.53;;;;;;;5.89;80.68;101705.31;8356073;28;20087;-52
2023/03/28 07:24:09;;;;;;;12.68;3.90;;;;;;;6.01;80.32;101700.13;8359496;28;20409;-53
2023/03/28 07:28:24;;;;;;;10.25;4.38;;;;;;;6.10;79.59;101698.75;8373437;28;20032;-52
2023/03/28 07:32:25;;;;;;;8.15;3.67;;;;;;;5.66;79.79;101701.13;8375041;28;20075;-52
2023/03/28 07:36:27;;;;;;;23.23;4.28;;;;;;;5.73;81.00;101699.84;8373666;28;20032;-50
2023/03/28 07:40:31;;;;;;;10.85;3.90;;;;;;;5.70;80.75;101709.84;8374945;28;20045;-52
2023/03/28 07:44:32;;;;;;;12.27;4.75;;;;;;;6.01;81.21;101712.69;8374756;28;20090;-51
2023/03/28 07:48:34;;;;;;;10.82;3.67;;;;;;;6.37;78.57;101718.72;8376378;28;20044;-51
2023/03/28 07:52:36;;;;;;;12.27;3.33;;;;;;;6.76;78.46;101716.50;8375436;28;20044;-50
2023/03/28 07:56:36;;;;;;;11.50;3.42;;;;;;;6.93;77.05;101729.84;8376159;28;20064;-51
2023/03/28 08:01:03;;;;;;;11.52;3.40;;;;;;;7.24;77.07;101727.13;8392440;28;20030;-50
2023/03/28 08:05:22;;;;;;;13.95;3.20;;;;;;;7.40;77.74;101730.63;8375517;28;20035;-51
2023/03/28 08:09:23;;;;;;;12.40;3.53;;;;;;;7.80;74.06;101729.97;8376063;28;20048;-52
2023/03/28 08:13:35;;;;;;;13.57;2.88;;;;;;;7.85;72.89;101727.88;8374333;28;20094;-52
2023/03/28 08:17:42;;;;;;;10.30;2.65;;;;;;;7.85;71.73;101727.88;8374293;28;20037;-52
2023/03/28 08:21:45;;;;;;;21.65;3.22;;;;;;;7.88;71.47;101733.06;8371224;28;20124;-53
2023/03/28 08:25:46;;;;;;;12.95;3.08;;;;;;;8.02;72.88;101730.38;8375527;28;20037;-51
2023/03/28 08:29:50;;;;;;;10.18;2.75;;;;;;;7.98;72.07;101739.59;8374958;28;20098;-52
2023/03/28 08:33:53;;;;;;;7.10;2.65;;;;;;;7.86;71.50;101729.59;8374884;28;20041;-53
2023/03/28 08:37:58;;;;;;;17.08;3.45;;;;;;;8.46;73.26;101724.94;8374959;28;20043;-53
2023/03/28 08:42:26;;;;;;;7.78;2.25;;;;;;;8.76;69.42;101727.47;8374582;28;20471;-52
2023/03/28 08:46:29;;;;;;;9.95;1.90;;;;;;;8.89;68.66;101723.00;8373839;28;20423;-52
2023/03/28 08:50:35;;;;;;;9.27;1.58;;;;;;;9.78;64.26;101731.28;8373519;28;20053;-52
2023/03/28 08:55:10;;;;;;;21.60;2.35;;;;;;;9.49;64.14;101727.88;8374742;28;20063;-52
2023/03/28 08:59:14;;;;;;;8.73;1.20;;;;;;;9.35;61.30;101733.34;8374270;28;20040;-52
2023/03/28 09:03:18;;;;;;;9.02;1.90;;;;;;;9.21;62.43;101730.69;8374124;28;20036;-52
2023/03/28 09:07:43;;;;;;;7.57;1.50;;;;;;;9.48;61.16;101722.56;8373508;28;20090;-53
2023/03/28 09:12:20;;;;;;;3.08;0.98;;;;;;;9.51;57.89;101717.84;8373990;28;20094;-53
2023/03/28 09:16:46;;;;;;;9.10;1.30;;;;;;;10.17;60.00;101706.91;8370122;28;20041;-53
2023/03/28 09:21:15;;;;;;;6.35;1.20;;;;;;;9.85;59.66;101717.25;8390244;28;20097;-53
2023/03/28 09:25:31;;;;;;;4.15;1.20;;;;;;;10.04;59.48;101706.03;8362413;28;20033;-53
2023/03/28 09:29:35;;;;;;;4.50;0.90;;;;;;;10.77;58.54;101691.63;8373514;28;20507;-53
2023/03/28 09:33:41;;;;;;;9.40;1.20;;;;;;;10.91;53.99;101683.38;8373352;28;20036;-53
2023/03/28 09:37:50;;;;;;;4.47;1.20;;;;;;;11.77;54.48;101674.00;8373507;28;20556;-54
2023/03/28 09:41:59;;;;;;;3.80;1.00;;;;;;;13.50;49.83;101684.91;8374616;28;20037;-52
2023/03/28 09:46:30;;;;;;;3.17;0.90;;;;;;;12.52;49.81;101672.44;8363147;28;20033;-53
2023/03/28 09:50:37;;;;;;;4.28;0.93;;;;;;;11.79;50.30;101675.63;8373010;28;20045;-53
2023/03/28 09:54:40;;;;;;;3.30;0.90;;;;;;;12.00;51.44;101654.09;8372952;28;20234;-52
2023/03/28 09:58:51;;;;;;;4.07;0.60;;;;;;;11.90;49.93;101653.97;8372725;28;20123;-53
2023/03/28 10:02:56;;;;;;;4.10;1.00;;;;;;;12.12;51.15;101653.13;8403660;28;20036;-53
2023/03/28 10:07:27;;;;;;;3.40;1.35;;;;;;;12.48;50.13;101643.88;8372103;28;20039;-53
2023/03/28 10:11:29;;;;;;;4.15;1.17;;;;;;;12.19;49.55;101650.75;8379415;28;20113;-54
2023/03/28 10:15:39;;;;;;;4.25;0.70;;;;;;;12.47;49.26;101636.72;8377687;28;20048;-53
2023/03/28 10:20:06;;;;;;;3.05;0.75;;;;;;;12.87;47.53;101635.16;8379040;28;20520;-53
2023/03/28 10:24:15;;;;;;;4.43;0.90;;;;;;;12.90;47.84;101640.31;8378787;28;20044;-52
2023/03/28 10:28:30;;;;;;;6.28;0.70;;;;;;;13.09;47.67;101629.66;8378870;28;20046;-52
2023/03/28 10:32:31;;;;;;;8.13;1.02;;;;;;;13.54;43.54;101625.72;8378871;28;20048;-54
2023/03/28 10:36:47;;;;;;;2.20;0.90;;;;;;;13.60;44.14;101625.19;8378296;28;20536;-54
2023/03/28 10:41:19;;;;;;;2.38;0.90;;;;;;;12.92;43.60;101617.47;8378920;28;20402;-54
2023/03/28 10:45:42;;;;;;;3.33;1.20;;;;;;;12.74;45.30;101615.44;8378237;28;20037;-53
2023/03/28 10:49:51;;;;;;;3.13;0.90;;;;;;;12.68;45.05;101618.66;8367048;28;20060;-55
2023/03/28 10:58:34;;;;;;;5.47;1.15;;;;;;;11.80;46.52;101603.31;8348483;27;20159;-54
2023/03/28 11:03:05;;;;;;;5.65;1.38;;;;;;;11.65;47.90;101597.28;8352593;28;20037;-54
2023/03/28 11:11:57;;;;;;;2.97;1.02;;;;;;;13.58;45.25;101586.44;8408907;27;20439;-55
2023/03/28 11:16:17;;;;;;;1.92;0.93;;;;;;;12.83;43.77;101579.38;8400741;27;20048;-53
2023/03/28 11:20:37;;;;;;;;;;;;;;;12.58;47.11;101568.88;8404766;27;20040;-53
2023/03/28 11:29:21;;;;;;;5.60;0.95;;;;;;;12.99;48.22;101552.69;8337149;27;20921;-59
2023/03/28 11:33:34;;;;;;;4.32;1.20;;;;;;;13.89;45.28;101539.25;8326889;28;20064;-53
2023/03/28 11:37:58;;;;;;;3.83;1.40;;;;;;;14.15;44.06;101524.16;8301448;28;20377;-53
2023/03/28 11:42:03;;;;;;;3.72;0.80;;;;;;;15.74;44.44;101519.00;8293495;28;20038;-53
2023/03/28 11:46:18;;;;;;;1.95;0.82;;;;;;;17.15;42.06;101514.63;8301453;28;20288;-53
2023/03/28 11:50:27;;;;;;;3.08;1.02;;;;;;;17.73;41.32;101521.22;8286069;28;20534;-53
2023/03/28 11:54:49;;;;;;;2.40;0.90;;;;;;;18.31;40.21;101508.47;8286190;28;20095;-53
2023/03/28 11:58:57;;;;;;;4.50;0.90;;;;;;;18.95;40.06;101505.91;8328860;28;20041;-59
2023/03/28 12:03:12;;;;;;;2.78;0.70;;;;;;;19.41;38.12;101496.13;8359098;28;20126;-59
2023/03/28 12:07:29;;;;;;;1.52;0.80;;;;;;;19.34;38.56;101489.63;8344605;28;20130;-59
2023/03/28 12:11:39;;;;;;;2.92;1.08;;;;;;;18.56;38.84;101491.09;8318956;28;20072;-59
2023/03/28 12:15:50;;;;;;;4.57;0.85;;;;;;;18.08;39.22;101477.25;8341656;28;20474;-59
2023/03/28 12:19:53;;;;;;;4.05;1.05;;;;;;;16.48;40.27;101470.63;8346522;28;20121;-60
2023/03/28 12:28:20;;;;;;;3.45;1.10;;;;;;;14.77;43.59;101459.41;8387103;27;20397;-59
2023/03/28 12:37:03;;;;;;;5.68;1.10;;;;;;;15.46;41.28;101441.75;8390735;27;20383;-59
2023/03/28 12:41:06;;;;;;;4.55;1.10;;;;;;;14.14;45.25;101424.53;8384998;27;20049;-58
2023/03/28 12:45:15;;;;;;;9.38;1.88;;;;;;;13.54;44.61;101405.63;8388841;27;20091;-58
2023/03/28 12:49:33;;;;;;;2.85;1.42;;;;;;;12.70;46.58;101426.75;8398189;27;20059;-57
2023/03/28 12:54:00;;;;;;;4.47;1.50;;;;;;;12.32;48.59;101421.03;8357085;28;20045;-57
2023/03/28 12:58:23;;;;;;;4.82;1.30;;;;;;;12.14;49.47;101412.56;8363188;28;20103;-57
2023/03/28 13:07:11;;;;;;;6.13;1.35;;;;;;;11.76;48.45;101399.53;8370595;27;20367;-57
2023/03/28 13:11:51;;;;;;;8.90;2.08;;;;;;;11.96;50.09;101407.84;8351430;28;20504;-57
2023/03/28 13:16:13;;;;;;;3.17;1.40;;;;;;;12.26;48.73;101397.16;8355227;28;20048;-56
2023/03/28 13:24:30;;;;;;;5.20;1.90;;;;;;;12.52;49.13;101385.78;8349314;27;20195;-57
2023/03/28 13:28:44;;;;;;;5.18;1.33;;;;;;;12.54;49.13;101377.53;8349673;28;20088;-57
2023/03/28 13:32:49;;;;;;;4.70;1.47;;;;;;;12.83;48.21;101367.69;8329335;28;20069;-55
2023/03/28 13:36:53;;;;;;;5.57;1.40;;;;;;;12.81;49.17;101332.56;8325243;28;20033;-57
2023/03/28 13:40:59;;;;;;;8.77;1.58;;;;;;;12.78;49.85;101340.97;8325782;28;20048;-57
2023/03/28 13:45:22;;;;;;;6.47;1.35;;;;;;;12.75;48.93;101343.09;8290694;28;20073;-57
2023/03/28 13:49:46;;;;;;;3.25;1.40;;;;;;;12.55;48.45;101338.53;8318306;28;20450;-57
2023/03/28 13:53:47;;;;;;;4.70;1.17;;;;;;;12.48;47.70;101334.66;8334915;28;20129;-57
2023/03/28 13:57:49;;;;;;;3.50;1.33;;;;;;;12.45;48.13;101313.22;8340568;28;20691;-57
2023/03/28 14:01:56;;;;;;;5.00;1.33;;;;;;;12.54;49.65;101312.41;8349058;28;20136;-57
2023/03/28 14:05:56;;;;;;;7.53;1.25;;;;;;;12.41;48.85;101290.91;8348318;28;20045;-57
2023/03/28 14:09:57;;;;;;;3.30;1.38;;;;;;;12.40;48.33;101293.75;8347198;28;20048;-57
2023/03/28 14:14:05;;;;;;;9.43;1.40;;;;;;;12.42;48.67;101289.06;8347517;28;20068;-57
2023/03/28 14:18:15;;;;;;;4.85;1.23;;;;;;;12.54;49.08;101280.75;8337990;28;20060;-58
2023/03/28 14:22:20;;;;;;;3.25;1.42;;;;;;;12.80;48.64;101275.69;8332058;28;20045;-56
2023/03/28 14:26:24;;;;;;;4.13;1.38;;;;;;;12.74;49.03;101279.81;8331420;28;20241;-57
2023/03/28 14:30:28;;;;;;;4.13;1.40;;;;;;;12.74;50.44;101260.84;8347285;28;20033;-57
2023/03/28 14:34:30;;;;;;;6.90;1.73;;;;;;;12.44;48.89;101254.56;8332498;28;20171;-58
2023/03/28 14:38:36;;;;;;;5.40;1.35;;;;;;;12.23;50.23;101248.28;8326516;28;20049;-58
2023/03/28 14:42:37;;;;;;;3.72;1.27;;;;;;;12.35;50.49;101236.38;8324607;28;20038;-58
2023/03/28 14:46:38;;;;;;;4.32;1.30;;;;;;;12.23;50.46;101226.59;8324751;28;20057;-58
2023/03/28 14:50:39;;;;;;;6.60;1.52;;;;;;;12.35;50.00;101220.09;8299705;28;20519;-58
2023/03/28 14:54:45;;;;;;;4.63;1.27;;;;;;;12.31;50.98;101215.94;8339351;28;20487;-57
2023/03/28 14:58:48;;;;;;;3.17;1.35;;;;;;;12.46;50.55;101211.88;8318940;28;20515;-58
2023/03/28 15:02:51;;;;;;;5.18;1.50;;;;;;;12.47;48.60;101202.75;8325239;28;20053;-59
2023/03/28 15:06:54;;;;;;;3.17;1.30;;;;;;;12.46;49.45;101191.03;8311422;28;20051;-53
2023/03/28 15:10:57;;;;;;;4.20;1.70;;;;;;;12.49;50.73;101187.19;8319531;28;20164;-54
2023/03/28 15:14:57;;;;;;;6.10;1.73;;;;;;;12.42;51.01;101180.59;8320328;28;20038;-53
2023/03/28 15:19:05;;;;;;;5.20;2.50;;;;;;;12.45;49.72;101169.47;8323791;28;20151;-53
2023/03/28 15:23:14;;;;;;;6.57;1.65;;;;;;;12.44;49.31;101159.63;8323330;28;20045;-54
2023/03/28 15:27:26;;;;;;;6.07;1.63;;;;;;;12.41;47.86;101141.75;8323439;28;20041;-56
2023/03/28 15:31:27;;;;;;;5.75;1.92;;;;;;;12.32;49.71;101129.03;8302693;28;20045;-54
2023/03/28 15:35:36;;;;;;;4.18;1.88;;;;;;;12.39;50.10;101123.94;8298256;28;20040;-53
2023/03/28 15:39:37;;;;;;;8.20;1.65;;;;;;;12.47;47.62;101116.81;8306361;28;20057;-53
2023/03/28 15:43:56;;;;;;;6.22;1.75;;;;;;;12.37;49.57;101121.34;8322700;28;20491;-54
2023/03/28 15:47:57;;;;;;;4.63;1.67;;;;;;;12.14;50.95;101111.69;8297064;28;20034;-53
2023/03/28 15:52:01;;;;;;;7.55;2.70;;;;;;;12.15;50.24;101108.00;8301381;28;20045;-53
2023/03/28 15:56:21;;;;;;;8.82;2.75;;;;;;;12.14;50.16;101098.13;8302924;28;20038;-60
2023/03/28 16:00:43;;;;;;;5.50;1.63;;;;;;;11.97;50.74;101100.63;8287354;28;20535;-59
2023/03/28 16:05:06;;;;;;;5.90;1.95;;;;;;;11.96;50.27;101096.22;8296564;28;20463;-59
2023/03/28 16:09:24;;;;;;;3.90;1.70;;;;;;;11.93;50.73;101090.06;8292834;28;20041;-59
2023/03/28 16:13:25;;;;;;;3.72;1.50;;;;;;;12.11;50.37;101086.72;8310511;28;20341;-59
2023/03/28 16:17:43;;;;;;;6.15;2.05;;;;;;;12.31;51.50;101077.66;8335049;28;20512;-59
2023/03/28 16:21:53;;;;;;;3.60;1.80;;;;;;;12.19;52.58;101079.63;8279739;28;20049;-59
2023/03/28 16:25:53;;;;;;;6.55;1.90;;;;;;;12.06;52.39;101073.59;8296975;28;20041;-59
2023/03/28 16:29:55;;;;;;;3.33;1.83;;;;;;;11.99;52.58;101071.53;8301867;28;20092;-59
2023/03/28 16:33:55;;;;;;;7.88;2.08;;;;;;;11.76;53.30;101071.72;8303277;28;20048;-59
2023/03/28 16:37:56;;;;;;;6.32;2.03;;;;;;;11.63;53.53;101060.28;8307475;28;20052;-58
2023/03/28 16:41:57;;;;;;;13.27;2.28;;;;;;;11.61;54.30;101067.63;8320041;28;20102;-59
2023/03/28 16:45:57;;;;;;;5.28;1.90;;;;;;;11.49;53.47;101068.69;8319954;28;20041;-59
2023/03/28 16:49:58;;;;;;;6.93;2.20;;;;;;;11.39;53.90;101067.78;8302781;28;20034;-59
2023/03/28 16:53:58;;;;;;;5.95;1.95;;;;;;;11.30;53.25;101062.28;8324238;28;20061;-59
2023/03/28 16:57:59;;;;;;;3.80;1.67;;;;;;;11.24;53.91;101065.50;8301220;28;20033;-60
2023/03/28 17:02:09;;;;;;;6.18;2.00;;;;;;;11.16;54.72;101073.44;8319981;28;20129;-60
2023/03/28 17:06:10;;;;;;;5.00;1.98;;;;;;;11.15;54.39;101075.28;8319615;28;20045;-60
2023/03/28 17:10:11;;;;;;;6.57;2.42;;;;;;;11.12;55.08;101069.25;8319829;28;20047;-53
2023/03/28 17:14:11;;;;;;;8.00;3.17;;;;;;;11.09;55.56;101072.22;8286270;28;20526;-53
2023/03/28 17:18:12;;;;;;;9.43;3.35;;;;;;;11.01;55.96;101072.88;8286464;28;20505;-60
2023/03/28 17:22:12;;;;;;;7.75;2.42;;;;;;;10.93;55.87;101069.13;8297053;28;20114;-60
2023/03/28 17:26:15;;;;;;;10.20;2.55;;;;;;;10.90;56.29;101067.53;8319091;28;20038;-60
2023/03/28 17:30:15;;;;;;;3.97;2.45;;;;;;;10.86;55.71;101068.75;8318760;28;20045;-59
2023/03/28 17:34:16;;;;;;;9.38;2.97;;;;;;;10.89;55.72;101056.84;8318713;28;20038;-59
2023/03/28 17:38:16;;;;;;;10.60;3.10;;;;;;;10.87;55.74;101059.69;8319095;28;20403;-60
2023/03/28 17:42:17;;;;;;;10.82;3.15;;;;;;;10.80;55.89;101063.03;8319217;28;20059;-54
2023/03/28 17:46:17;;;;;;;8.85;2.90;;;;;;;10.70;55.46;101033.19;8310191;28;20041;-54
2023/03/28 17:50:19;;;;;;;7.28;2.90;;;;;;;10.81;56.32;101076.41;8301187;28;20346;-55
2023/03/28 17:54:19;;;;;;;5.55;2.50;;;;;;;10.82;56.11;101061.03;8349865;28;20029;-55
2023/03/28 17:58:20;;;;;;;6.43;2.75;;;;;;;10.83;55.33;101047.38;8321534;28;20526;-54
2023/03/28 18:02:20;;;;;;;7.90;3.53;;;;;;;10.77;56.11;101058.72;8318342;28;20046;-54
2023/03/28 18:06:33;;;;;;;7.07;2.60;;;;;;;10.68;56.41;101046.00;8308641;28;20076;-54
2023/03/28 18:10:33;;;;;;;6.75;3.10;;;;;;;10.58;57.78;101058.53;8291204;28;20504;-54
2023/03/28 18:14:34;;;;;;;7.47;2.55;;;;;;;10.60;57.26;101056.56;8298632;28;20049;-53
2023/03/28 18:18:35;;;;;;;7.65;2.47;;;;;;;10.53;58.46;101077.00;8304359;28;20045;-54
2023/03/28 18:22:37;;;;;;;8.65;3.10;;;;;;;10.50;59.06;101093.47;8321347;28;20775;-54
2023/03/28 18:26:38;;;;;;;3.72;1.63;;;;;;;10.53;58.85;101095.06;8317105;28;20065;-54
2023/03/28 18:30:39;;;;;;;4.18;1.73;;;;;;;10.49;60.56;101094.44;8317192;28;20064;-54
2023/03/28 18:34:41;;;;;;;4.55;2.42;;;;;;;10.07;66.43;101113.28;8306632;28;20119;-54
2023/03/28 18:38:43;;;;;;;4.55;2.25;;;;;;;9.54;71.33;101117.47;8311659;28;20072;-53
2023/03/28 18:42:44;;;;;;;6.72;2.30;;;;;;;9.11;76.85;101119.06;8310477;28;20514;-53
2023/03/28 18:46:53;;;;;;;7.82;3.90;;;;;;;8.90;80.89;101120.69;8311894;28;20183;-55
2023/03/28 18:50:54;;;;;;;12.43;5.80;;;;;;;8.75;83.52;101124.56;8313308;28;20033;-53
2023/03/28 18:54:55;;;;;;;6.43;2.17;;;;;;;8.59;85.14;101107.78;8320047;28;20120;-53
2023/03/28 18:58:56;;;;;;;5.50;2.53;;;;;;;8.54;88.12;101109.97;8312398;28;20273;-53
2023/03/28 19:02:56;;;;;;;8.15;3.42;;;;;;;8.40;89.52;101112.81;8304693;28;20080;-53
2023/03/28 19:06:57;;;;;;;4.93;2.80;;;;;;;8.22;87.93;101111.41;8308814;28;20111;-54
2023/03/28 19:10:59;;;;;;;3.22;2.60;;;;;;;8.35;89.98;101118.53;8314836;28;20060;-54
2023/03/28 19:15:00;;;;;;;4.72;1.60;;;;;;;8.30;90.71;101114.47;8310085;28;20037;-53
2023/03/28 19:19:01;;;;;;;3.53;2.28;;;;;;;8.34;93.02;101118.66;8310880;28;20041;-52
2023/03/28 19:23:01;;;;;;;4.90;2.03;;;;;;;8.25;94.29;101119.31;8322676;28;20045;-53
2023/03/28 19:27:02;;;;;;;6.28;3.50;;;;;;;8.23;92.01;101115.88;8321620;28;20113;-52
2023/03/28 19:31:05;;;;;;;4.07;2.58;;;;;;;8.25;89.82;101111.22;8310941;28;20144;-53
2023/03/28 19:35:06;;;;;;;6.82;2.85;;;;;;;8.28;89.06;101100.22;8297784;28;20045;-52
2023/03/28 19:39:07;;;;;;;8.40;3.60;;;;;;;8.04;88.18;101087.56;8321473;28;20100;-52
2023/03/28 19:43:07;;;;;;;6.30;3.47;;;;;;;7.89;88.65;101077.03;8320972;28;20049;-53
2023/03/28 19:47:08;;;;;;;13.15;5.05;;;;;;;7.80;91.00;101062.41;8309681;28;20072;-51
2023/03/28 19:51:08;;;;;;;17.02;6.20;;;;;;;7.75;91.77;101051.09;8302198;28;20511;-53
2023/03/28 19:55:09;;;;;;;13.65;4.70;;;;;;;7.73;91.13;101044.09;8306198;28;20056;-53